Time;durP1;ratioP1;P1;durP2;ratioP2;P2;SDS_P1;SDS_P2;PMS_P1;PMS_P2;Temp;Humidity;BMP_temperature;BMP_pressure;BME280_temperature;BME280_humidity;BME280_pressure;Samples;Min_cycle;Max_cycle;Signal;HPM_P1;HPM_P2
2021/09/13 00:01:00;;;;;;;;;;;19.00;50.00;;;;;;5017136;28;88646;-54
2021/09/13 00:03:25;;;;;;;;;;;19.00;50.00;;;;;;5017656;28;88130;-53
2021/09/13 00:05:51;;;;;;;;;;;19.00;50.00;;;;;;5019494;28;88399;-53
2021/09/13 00:08:16;;;;;;;;;;;18.90;50.00;;;;;;5019355;28;88731;-54
2021/09/13 00:10:42;;;;;;;;;;;19.00;50.10;;;;;;5016288;28;88851;-51
2021/09/13 00:13:08;;;;;;;;;;;19.00;50.00;;;;;;5018163;28;88696;-53
2021/09/13 00:15:33;;;;;;;;;;;18.90;50.00;;;;;;5016647;28;87098;-55
2021/09/13 00:18:00;;;;;;;;;;;18.90;50.10;;;;;;5017956;28;87547;-51
2021/09/13 00:20:25;;;;;;;;;;;18.90;50.10;;;;;;5018438;28;86617;-51
2021/09/13 00:22:51;;;;;;;;;;;18.90;50.10;;;;;;5019500;28;87186;-51
2021/09/13 00:25:16;;;;;;;;;;;18.90;50.00;;;;;;5020313;28;87742;-51
2021/09/13 00:27:42;;;;;;;;;;;18.90;50.10;;;;;;5019016;28;89018;-51
2021/09/13 00:30:08;;;;;;;;;;;18.90;50.10;;;;;;5023710;28;88123;-54
2021/09/13 00:32:33;;;;;;;;;;;18.80;50.10;;;;;;5023101;28;87844;-54
2021/09/13 00:34:59;;;;;;;;;;;18.80;50.10;;;;;;5024193;28;88817;-50
2021/09/13 00:37:24;;;;;;;;;;;18.80;50.10;;;;;;5018709;28;87662;-51
2021/09/13 00:39:50;;;;;;;;;;;18.80;50.10;;;;;;5018533;28;88052;-50
2021/09/13 00:42:15;;;;;;;;;;;18.80;50.10;;;;;;5019759;28;87218;-52
2021/09/13 00:44:41;;;;;;;;;;;18.80;50.10;;;;;;5021419;28;87736;-51
2021/09/13 00:47:07;;;;;;;;;;;18.70;50.10;;;;;;5021660;28;89569;-51
2021/09/13 00:49:32;;;;;;;;;;;18.70;50.80;;;;;;5023229;28;87204;-52
2021/09/13 00:51:58;;;;;;;;;;;18.70;50.20;;;;;;5019939;28;88905;-54
2021/09/13 00:54:23;;;;;;;;;;;18.70;50.20;;;;;;5021274;28;88161;-50
2021/09/13 00:56:49;;;;;;;;;;;18.70;50.20;;;;;;5019788;28;87477;-51
2021/09/13 00:59:15;;;;;;;;;;;18.70;50.20;;;;;;5020548;28;88172;-53
2021/09/13 01:01:41;;;;;;;;;;;18.70;50.20;;;;;;5021236;28;87225;-52
2021/09/13 01:04:07;;;;;;;;;;;18.60;50.20;;;;;;5021983;28;87632;-51
2021/09/13 01:06:32;;;;;;;;;;;18.60;50.30;;;;;;5022597;28;87624;-50
2021/09/13 01:08:58;;;;;;;;;;;18.60;50.30;;;;;;5020188;28;87923;-51
2021/09/13 01:11:24;;;;;;;;;;;18.60;50.20;;;;;;5018738;28;87993;-55
2021/09/13 01:13:50;;;;;;;;;;;18.60;50.20;;;;;;5018286;28;87950;-51
2021/09/13 01:16:15;;;;;;;;;;;18.50;50.20;;;;;;5022150;28;88148;-52
2021/09/13 01:18:41;;;;;;;;;;;18.50;50.20;;;;;;5020507;28;88177;-51
2021/09/13 01:21:07;;;;;;;;;;;18.60;50.30;;;;;;5021998;28;87158;-53
2021/09/13 01:23:33;;;;;;;;;;;18.60;50.20;;;;;;5022497;28;89174;-51
2021/09/13 01:25:59;;;;;;;;;;;18.50;50.10;;;;;;5021526;28;89376;-52
2021/09/13 01:28:24;;;;;;;;;;;18.50;50.20;;;;;;5018989;28;88839;-52
2021/09/13 01:30:50;;;;;;;;;;;18.50;50.30;;;;;;5018318;28;87636;-50
2021/09/13 01:33:16;;;;;;;;;;;18.50;50.20;;;;;;5018538;28;87108;-51
2021/09/13 01:35:42;;;;;;;;;;;18.50;50.30;;;;;;5019797;28;87146;-51
2021/09/13 01:38:07;;;;;;;;;;;18.50;50.30;;;;;;5023293;28;87395;-51
2021/09/13 01:40:33;;;;;;;;;;;18.40;50.30;;;;;;5021068;28;88082;-53
2021/09/13 01:42:59;;;;;;;;;;;18.40;50.20;;;;;;5021450;28;87901;-55
2021/09/13 01:45:25;;;;;;;;;;;18.40;50.30;;;;;;5018740;28;89435;-52
2021/09/13 01:47:50;;;;;;;;;;;18.40;50.30;;;;;;5017479;28;88860;-52
2021/09/13 01:50:16;;;;;;;;;;;18.40;50.30;;;;;;5018625;28;88054;-52
2021/09/13 01:52:42;;;;;;;;;;;18.40;50.30;;;;;;5019451;28;87600;-52
2021/09/13 01:55:07;;;;;;;;;;;18.30;50.30;;;;;;5020929;28;87126;-51
2021/09/13 01:57:33;;;;;;;;;;;18.30;50.40;;;;;;5021873;28;87768;-50
2021/09/13 01:59:59;;;;;;;;;;;18.30;50.30;;;;;;5023462;28;88173;-54
2021/09/13 02:02:24;;;;;;;;;;;18.30;50.30;;;;;;5017921;28;88164;-52
2021/09/13 02:04:50;;;;;;;;;;;18.30;50.30;;;;;;5017169;28;88621;-51
2021/09/13 02:07:15;;;;;;;;;;;18.30;50.40;;;;;;5019418;28;87207;-52
2021/09/13 02:09:41;;;;;;;;;;;18.30;50.40;;;;;;5020715;28;87283;-53
2021/09/13 02:12:06;;;;;;;;;;;18.20;50.40;;;;;;5021195;28;90847;-55
2021/09/13 02:14:32;;;;;;;;;;;18.20;50.40;;;;;;5019384;28;87578;-50
2021/09/13 02:16:57;;;;;;;;;;;18.20;50.40;;;;;;5017472;28;87160;-53
2021/09/13 02:19:23;;;;;;;;;;;18.20;50.40;;;;;;5018300;28;87888;-52
2021/09/13 02:21:48;;;;;;;;;;;18.20;50.40;;;;;;5023268;28;86409;-51
2021/09/13 02:24:14;;;;;;;;;;;18.20;50.50;;;;;;5020646;28;88430;-53
2021/09/13 02:26:39;;;;;;;;;;;18.20;50.40;;;;;;5020687;28;87990;-50
2021/09/13 02:29:05;;;;;;;;;;;18.20;50.40;;;;;;5016775;28;89747;-51
2021/09/13 02:31:31;;;;;;;;;;;18.10;50.30;;;;;;5017471;28;88221;-51
2021/09/13 02:33:56;;;;;;;;;;;18.20;50.40;;;;;;5018689;28;87156;-53
2021/09/13 02:36:22;;;;;;;;;;;18.10;50.40;;;;;;5020229;28;87570;-53
2021/09/13 02:38:47;;;;;;;;;;;18.10;50.50;;;;;;5021151;28;88664;-54
2021/09/13 02:41:13;;;;;;;;;;;18.10;50.40;;;;;;5021583;28;87113;-53
2021/09/13 02:43:38;;;;;;;;;;;18.00;50.40;;;;;;5023818;28;88712;-52
2021/09/13 02:46:04;;;;;;;;;;;18.00;50.40;;;;;;5021817;28;86426;-55
2021/09/13 02:48:29;;;;;;;;;;;18.00;50.40;;;;;;5020829;28;88135;-53
2021/09/13 02:50:55;;;;;;;;;;;18.00;50.50;;;;;;5018682;28;88152;-53
2021/09/13 02:53:20;;;;;;;;;;;18.00;50.50;;;;;;5015852;28;89093;-51
2021/09/13 02:55:46;;;;;;;;;;;18.00;50.50;;;;;;5017738;28;88402;-50
2021/09/13 02:58:11;;;;;;;;;;;18.00;50.50;;;;;;5018603;28;88152;-53
2021/09/13 03:00:37;;;;;;;;;;;18.00;50.50;;;;;;5020235;28;87120;-51
2021/09/13 03:03:02;;;;;;;;;;;17.90;50.50;;;;;;5023495;28;87872;-54
2021/09/13 03:05:28;;;;;;;;;;;17.90;50.50;;;;;;5017172;28;88504;-52
2021/09/13 03:07:53;;;;;;;;;;;17.90;50.50;;;;;;5016915;28;87129;-54
2021/09/13 03:10:19;;;;;;;;;;;17.90;50.50;;;;;;5016973;28;87968;-52
2021/09/13 03:12:44;;;;;;;;;;;17.90;50.50;;;;;;5018138;28;87146;-50
2021/09/13 03:15:10;;;;;;;;;;;17.80;50.50;;;;;;5017747;28;87244;-53
2021/09/13 03:17:36;;;;;;;;;;;17.80;50.50;;;;;;5016337;28;91002;-51
2021/09/13 03:20:02;;;;;;;;;;;17.80;50.50;;;;;;5017647;28;87219;-52
2021/09/13 03:22:28;;;;;;;;;;;17.80;50.50;;;;;;5018264;28;89486;-54
2021/09/13 03:24:53;;;;;;;;;;;17.80;50.50;;;;;;5021772;28;89638;-51
2021/09/13 03:27:19;;;;;;;;;;;17.80;50.60;;;;;;5020580;28;88579;-53
2021/09/13 03:29:45;;;;;;;;;;;17.70;50.70;;;;;;5017934;28;88716;-50
2021/09/13 03:32:10;;;;;;;;;;;17.80;50.70;;;;;;5016372;28;87150;-52
2021/09/13 03:34:36;;;;;;;;;;;17.70;50.60;;;;;;5017992;28;87177;-51
2021/09/13 03:37:03;;;;;;;;;;;17.70;50.70;;;;;;5018496;28;88250;-54
2021/09/13 03:39:28;;;;;;;;;;;17.70;50.60;;;;;;5017959;28;87168;-52
2021/09/13 03:41:54;;;;;;;;;;;17.70;50.70;;;;;;5018718;28;88126;-53
2021/09/13 03:44:19;;;;;;;;;;;17.60;50.60;;;;;;5020106;28;88178;-54
2021/09/13 03:46:45;;;;;;;;;;;17.60;50.70;;;;;;5020728;28;88621;-52
2021/09/13 03:49:10;;;;;;;;;;;17.60;50.60;;;;;;5015188;28;87804;-53
2021/09/13 03:51:36;;;;;;;;;;;17.50;50.70;;;;;;5016048;28;87161;-52
2021/09/13 03:54:01;;;;;;;;;;;17.60;50.70;;;;;;5017127;28;87252;-50
2021/09/13 03:56:27;;;;;;;;;;;17.60;50.70;;;;;;5017708;28;88797;-52
2021/09/13 03:58:53;;;;;;;;;;;17.60;50.70;;;;;;5019741;28;86419;-52
2021/09/13 04:01:19;;;;;;;;;;;17.50;50.60;;;;;;5020081;28;88367;-50
2021/09/13 04:03:49;;;;;;;;;;;17.60;50.60;;;;;;5022347;28;89836;-53
2021/09/13 04:07:00;;;;;;;;;;;17.50;50.60;;;;;;5018793;28;88182;-52
2021/09/13 04:14:18;;;;;;;;;;;17.40;50.70;;;;;;5020957;28;87470;-50
2021/09/13 04:16:44;;;;;;;;;;;17.40;50.70;;;;;;5021742;28;88367;-50
2021/09/13 04:19:09;;;;;;;;;;;17.40;50.70;;;;;;5023381;28;87147;-51
2021/09/13 04:21:35;;;;;;;;;;;17.40;50.70;;;;;;5022483;28;88830;-53
2021/09/13 04:24:00;;;;;;;;;;;17.40;50.70;;;;;;5019507;28;88849;-50
2021/09/13 04:26:26;;;;;;;;;;;17.40;50.70;;;;;;5019590;28;87187;-50
2021/09/13 04:28:52;;;;;;;;;;;17.40;50.70;;;;;;5020881;28;87292;-51
2021/09/13 04:31:18;;;;;;;;;;;17.40;50.80;;;;;;5023904;28;89638;-54
2021/09/13 04:33:43;;;;;;;;;;;17.40;50.80;;;;;;5022007;28;89790;-53
2021/09/13 04:36:09;;;;;;;;;;;17.40;50.80;;;;;;5022951;28;89845;-54
2021/09/13 04:38:34;;;;;;;;;;;17.30;50.80;;;;;;5023730;28;87151;-53
2021/09/13 04:41:00;;;;;;;;;;;17.30;50.80;;;;;;5021248;28;87873;-51
2021/09/13 04:43:26;;;;;;;;;;;17.30;50.90;;;;;;5018366;28;89537;-52
2021/09/13 04:45:51;;;;;;;;;;;17.30;50.80;;;;;;5019942;28;87169;-52
2021/09/13 04:48:17;;;;;;;;;;;17.30;50.80;;;;;;5021610;28;86497;-54
2021/09/13 04:50:42;;;;;;;;;;;17.30;50.80;;;;;;5022137;28;87844;-51
2021/09/13 04:53:08;;;;;;;;;;;17.30;50.80;;;;;;5025618;28;87645;-54
2021/09/13 04:55:35;;;;;;;;;;;17.30;50.70;;;;;;5018298;28;90804;-54
2021/09/13 04:58:00;;;;;;;;;;;17.30;50.80;;;;;;5020435;28;88790;-55
2021/09/13 05:00:26;;;;;;;;;;;17.30;50.80;;;;;;5018282;28;90186;-51
2021/09/13 05:02:51;;;;;;;;;;;17.20;50.70;;;;;;5018740;28;89145;-54
2021/09/13 05:05:17;;;;;;;;;;;17.20;50.70;;;;;;5019275;28;87165;-49
2021/09/13 05:07:43;;;;;;;;;;;17.30;50.80;;;;;;5020401;28;87325;-53
2021/09/13 05:10:09;;;;;;;;;;;17.20;50.70;;;;;;5020521;28;87875;-54
2021/09/13 05:12:34;;;;;;;;;;;17.20;50.70;;;;;;5024263;28;86367;-55
2021/09/13 05:15:00;;;;;;;;;;;17.20;50.70;;;;;;5021092;28;87748;-54
2021/09/13 05:17:25;;;;;;;;;;;17.20;50.80;;;;;;5022054;28;87801;-52
2021/09/13 05:19:51;;;;;;;;;;;17.20;50.90;;;;;;5018200;28;88963;-53
2021/09/13 05:22:16;;;;;;;;;;;17.10;50.80;;;;;;5018570;28;88363;-53
2021/09/13 05:24:42;;;;;;;;;;;17.20;50.90;;;;;;5019996;28;87113;-53
2021/09/13 05:27:07;;;;;;;;;;;17.20;50.80;;;;;;5021392;28;87150;-54
2021/09/13 05:29:33;;;;;;;;;;;17.20;50.80;;;;;;5022233;28;87655;-54
2021/09/13 05:31:59;;;;;;;;;;;17.20;50.90;;;;;;5021357;28;88008;-54
2021/09/13 05:34:24;;;;;;;;;;;17.20;50.90;;;;;;5020647;28;88584;-55
2021/09/13 05:36:50;;;;;;;;;;;17.10;50.80;;;;;;5019254;28;86408;-54
2021/09/13 05:39:15;;;;;;;;;;;17.10;50.90;;;;;;5019906;28;87261;-53
2021/09/13 05:41:41;;;;;;;;;;;17.10;51.00;;;;;;5019243;28;88556;-50
2021/09/13 05:44:06;;;;;;;;;;;17.10;50.90;;;;;;5020175;28;88062;-56
2021/09/13 05:46:32;;;;;;;;;;;17.10;51.00;;;;;;5021895;28;89587;-56
2021/09/13 05:48:58;;;;;;;;;;;17.10;50.90;;;;;;5021603;28;88700;-54
2021/09/13 05:51:23;;;;;;;;;;;17.10;51.00;;;;;;5018730;28;88609;-54
2021/09/13 05:53:49;;;;;;;;;;;17.10;50.90;;;;;;5018405;28;87209;-54
2021/09/13 05:56:14;;;;;;;;;;;17.10;51.00;;;;;;5022115;28;87904;-51
2021/09/13 05:58:40;;;;;;;;;;;17.10;51.00;;;;;;5020692;28;88827;-51
2021/09/13 06:01:06;;;;;;;;;;;17.10;51.00;;;;;;5022272;28;87588;-55
2021/09/13 06:03:31;;;;;;;;;;;17.00;51.00;;;;;;5021591;28;87889;-54
2021/09/13 06:05:57;;;;;;;;;;;17.10;51.70;;;;;;5020761;28;88530;-54
2021/09/13 06:08:22;;;;;;;;;;;17.10;51.00;;;;;;5016275;28;90478;-50
2021/09/13 06:10:48;;;;;;;;;;;17.10;51.10;;;;;;5018308;28;87192;-50
2021/09/13 06:13:13;;;;;;;;;;;17.10;51.10;;;;;;5018391;28;87408;-51
2021/09/13 06:15:39;;;;;;;;;;;17.10;51.20;;;;;;5018975;28;87782;-54
2021/09/13 06:18:05;;;;;;;;;;;17.10;51.20;;;;;;5022909;28;87151;-54
2021/09/13 06:20:31;;;;;;;;;;;17.10;51.20;;;;;;5020913;28;88658;-51
2021/09/13 06:22:56;;;;;;;;;;;17.10;51.20;;;;;;5021358;28;87986;-51
2021/09/13 06:25:22;;;;;;;;;;;17.10;51.10;;;;;;5017350;28;88131;-53
2021/09/13 06:27:47;;;;;;;;;;;17.00;51.20;;;;;;5017495;28;88182;-51
2021/09/13 06:30:13;;;;;;;;;;;17.10;51.20;;;;;;5019017;28;87138;-52
2021/09/13 06:32:39;;;;;;;;;;;17.00;51.30;;;;;;5019280;28;88217;-55
2021/09/13 06:35:04;;;;;;;;;;;17.10;51.30;;;;;;5020235;28;88124;-53
2021/09/13 06:37:30;;;;;;;;;;;17.00;51.40;;;;;;5020400;28;87113;-51
2021/09/13 06:39:59;;;;;;;;;;;17.10;51.40;;;;;;5022831;28;87506;-54
2021/09/13 06:42:25;;;;;;;;;;;17.00;51.40;;;;;;5017170;28;87129;-51
2021/09/13 06:44:51;;;;;;;;;;;17.00;51.50;;;;;;5017075;28;87943;-52
2021/09/13 06:47:43;;;;;;;;;;;17.00;51.50;;;;;;5017717;28;89274;-51
2021/09/13 06:50:09;;;;;;;;;;;17.00;51.50;;;;;;5018148;28;86453;-53
2021/09/13 06:52:34;;;;;;;;;;;17.00;51.50;;;;;;5018734;28;87228;-51
2021/09/13 06:55:00;;;;;;;;;;;17.00;51.50;;;;;;5019479;28;88650;-52
2021/09/13 06:57:25;;;;;;;;;;;17.00;51.50;;;;;;5020484;28;88108;-55
2021/09/13 06:59:51;;;;;;;;;;;17.00;51.90;;;;;;5023790;28;87656;-53
2021/09/13 07:02:16;;;;;;;;;;;17.00;51.60;;;;;;5020978;28;88130;-53
2021/09/13 07:04:42;;;;;;;;;;;17.00;51.60;;;;;;5020922;28;87834;-51
2021/09/13 07:07:07;;;;;;;;;;;17.00;51.70;;;;;;5019606;28;89066;-52
2021/09/13 07:09:33;;;;;;;;;;;17.00;51.70;;;;;;5017004;28;87206;-55
2021/09/13 07:11:58;;;;;;;;;;;17.00;51.70;;;;;;5017091;28;87561;-51
2021/09/13 07:14:24;;;;;;;;;;;17.00;51.70;;;;;;5017420;28;87415;-54
2021/09/13 07:16:49;;;;;;;;;;;17.00;51.70;;;;;;5018556;28;87159;-50
2021/09/13 07:19:15;;;;;;;;;;;17.00;51.80;;;;;;5019647;28;87489;-54
2021/09/13 07:21:40;;;;;;;;;;;17.00;51.80;;;;;;5023096;28;89464;-52
2021/09/13 07:24:06;;;;;;;;;;;17.00;51.70;;;;;;5017930;28;88501;-52
2021/09/13 07:26:31;;;;;;;;;;;17.00;51.70;;;;;;5016103;28;89012;-52
2021/09/13 07:28:57;;;;;;;;;;;17.00;51.90;;;;;;5017805;28;87166;-54
2021/09/13 07:31:23;;;;;;;;;;;17.00;51.80;;;;;;5018099;28;87714;-53
2021/09/13 07:33:48;;;;;;;;;;;17.00;51.80;;;;;;5016524;28;88277;-51
2021/09/13 07:36:14;;;;;;;;;;;17.00;51.90;;;;;;5016554;28;87129;-52
2021/09/13 07:38:40;;;;;;;;;;;17.00;52.50;;;;;;5018563;28;88946;-53
2021/09/13 07:41:05;;;;;;;;;;;17.00;51.90;;;;;;5018126;28;89646;-51
2021/09/13 07:43:31;;;;;;;;;;;17.00;51.90;;;;;;5022096;28;87136;-52
2021/09/13 07:45:56;;;;;;;;;;;17.00;51.90;;;;;;5019133;28;88512;-53
2021/09/13 07:48:22;;;;;;;;;;;17.00;51.90;;;;;;5018996;28;88050;-52
2021/09/13 07:50:48;;;;;;;;;;;17.00;51.90;;;;;;5019056;28;87876;-51
2021/09/13 07:53:14;;;;;;;;;;;17.00;52.00;;;;;;5019963;28;89507;-52
2021/09/13 07:55:39;;;;;;;;;;;17.00;51.90;;;;;;5020038;28;87120;-55
2021/09/13 07:58:05;;;;;;;;;;;17.00;52.00;;;;;;5019779;28;88806;-53
2021/09/13 08:00:30;;;;;;;;;;;17.00;52.00;;;;;;5016138;28;88122;-53
2021/09/13 08:02:56;;;;;;;;;;;17.00;52.00;;;;;;5017133;28;86390;-54
2021/09/13 08:05:21;;;;;;;;;;;17.00;52.10;;;;;;5020400;28;87176;-51
2021/09/13 08:07:47;;;;;;;;;;;17.00;52.20;;;;;;5017718;28;87168;-53
2021/09/13 08:10:12;;;;;;;;;;;17.00;52.10;;;;;;5018691;28;89506;-53
2021/09/13 08:12:38;;;;;;;;;;;17.00;52.20;;;;;;5019755;28;87732;-51
2021/09/13 08:15:05;;;;;;;;;;;17.10;52.20;;;;;;5018126;28;88849;-51
2021/09/13 08:17:31;;;;;;;;;;;17.10;52.20;;;;;;5019697;28;87205;-52
2021/09/13 08:19:57;;;;;;;;;;;17.00;52.20;;;;;;5018620;28;90106;-51
2021/09/13 08:22:23;;;;;;;;;;;17.00;52.20;;;;;;5019914;28;87400;-50
2021/09/13 08:24:50;;;;;;;;;;;17.00;52.20;;;;;;5017766;28;88042;-50
2021/09/13 08:27:16;;;;;;;;;;;17.10;52.20;;;;;;5022487;28;88727;-55
2021/09/13 08:29:41;;;;;;;;;;;17.10;52.30;;;;;;5019310;28;87266;-53
2021/09/13 08:32:07;;;;;;;;;;;17.10;52.20;;;;;;5017567;28;89251;-52
2021/09/13 08:34:33;;;;;;;;;;;17.10;52.20;;;;;;5016068;28;88972;-54
2021/09/13 08:36:58;;;;;;;;;;;17.10;52.20;;;;;;5016413;28;90079;-52
2021/09/13 08:39:24;;;;;;;;;;;17.10;52.30;;;;;;5015291;28;88068;-52
2021/09/13 08:41:49;;;;;;;;;;;17.10;52.30;;;;;;5015767;28;87124;-54
2021/09/13 08:44:15;;;;;;;;;;;17.10;52.30;;;;;;5017071;28;87448;-53
2021/09/13 08:49:26;;;;;;;;;;;17.10;52.40;;;;;;5020921;28;87229;-52
2021/09/13 08:51:52;;;;;;;;;;;17.10;52.30;;;;;;5022705;28;88402;-53
2021/09/13 08:54:18;;;;;;;;;;;17.10;52.30;;;;;;5022153;28;88645;-54
2021/09/13 08:56:46;;;;;;;;;;;17.20;52.10;;;;;;5020494;28;89233;-52
2021/09/13 08:59:15;;;;;;;;;;;17.20;52.50;;;;;;5020918;28;90564;-53
2021/09/13 09:01:42;;;;;;;;;;;17.20;52.20;;;;;;5020008;27;87833;-51
2021/09/13 09:04:08;;;;;;;;;;;17.20;52.00;;;;;;5019594;28;88034;-53
2021/09/13 09:06:35;;;;;;;;;;;17.20;51.90;;;;;;5018861;28;88275;-53
2021/09/13 09:09:05;;;;;;;;;;;17.20;51.80;;;;;;5023177;28;88036;-52
2021/09/13 09:11:50;;;;;;;;;;;17.20;52.10;;;;;;5019042;28;89570;-55
2021/09/13 09:14:26;;;;;;;;;;;17.20;52.20;;;;;;5020825;28;87126;-55
2021/09/13 09:16:59;;;;;;;;;;;17.30;52.20;;;;;;5022393;28;87487;-53
2021/09/13 09:19:25;;;;;;;;;;;17.30;52.00;;;;;;5019717;28;88826;-52
2021/09/13 09:21:50;;;;;;;;;;;17.30;52.20;;;;;;5020930;28;87208;-53
2021/09/13 09:24:16;;;;;;;;;;;17.30;52.00;;;;;;5021651;28;88096;-54
2021/09/13 09:26:58;;;;;;;;;;;17.30;52.60;;;;;;5021872;28;89195;-54
2021/09/13 09:29:30;;;;;;;;;;;17.40;52.10;;;;;;5021012;28;87310;-53
2021/09/13 09:31:57;;;;;;;;;;;17.40;52.10;;;;;;5022677;28;87405;-53
2021/09/13 09:34:25;;;;;;;;;;;17.40;52.20;;;;;;5018832;28;87174;-55
2021/09/13 09:37:00;;;;;;;;;;;17.40;52.10;;;;;;5017932;28;88538;-53
2021/09/13 09:39:29;;;;;;;;;;;17.40;51.80;;;;;;5019628;28;89964;-52
2021/09/13 09:41:56;;;;;;;;;;;17.40;51.80;;;;;;5021909;28;87675;-55
2021/09/13 09:44:22;;;;;;;;;;;17.50;51.50;;;;;;5021888;28;87830;-55
2021/09/13 09:46:48;;;;;;;;;;;17.50;51.50;;;;;;5021390;28;89517;-55
2021/09/13 09:49:15;;;;;;;;;;;17.50;51.70;;;;;;5018472;28;89942;-54
2021/09/13 09:51:42;;;;;;;;;;;17.50;51.60;;;;;;5021258;28;89810;-54
2021/09/13 09:54:09;;;;;;;;;;;17.50;51.50;;;;;;5023212;28;89593;-55
2021/09/13 09:56:35;;;;;;;;;;;17.50;51.70;;;;;;5019061;28;87516;-51
2021/09/13 09:59:04;;;;;;;;;;;17.60;50.20;;;;;;5018570;28;87683;-60
2021/09/13 10:01:31;;;;;;;;;;;17.90;49.20;;;;;;5022014;28;87146;-50
2021/09/13 10:03:56;;;;;;;;;;;17.90;49.40;;;;;;5021822;28;88824;-50
2021/09/13 10:06:22;;;;;;;;;;;17.70;50.10;;;;;;5022106;28;88025;-50
2021/09/13 10:08:47;;;;;;;;;;;17.80;50.20;;;;;;5020364;28;88551;-49
2021/09/13 10:11:13;;;;;;;;;;;17.80;50.20;;;;;;5017620;28;88768;-51
2021/09/13 10:13:40;;;;;;;;;;;17.80;50.30;;;;;;5016854;28;89658;-49
2021/09/13 10:16:06;;;;;;;;;;;17.80;50.40;;;;;;5025086;28;87991;-52
2021/09/13 10:18:32;;;;;;;;;;;17.90;50.50;;;;;;5020513;28;87555;-49
2021/09/13 10:20:57;;;;;;;;;;;17.90;50.40;;;;;;5021872;28;87156;-51
2021/09/13 10:23:23;;;;;;;;;;;17.90;50.60;;;;;;5019767;28;88051;-49
2021/09/13 10:25:48;;;;;;;;;;;17.90;50.70;;;;;;5016818;28;87872;-50
2021/09/13 10:28:14;;;;;;;;;;;17.90;50.70;;;;;;5017335;28;87158;-50
2021/09/13 10:30:50;;;;;;;;;;;18.00;50.70;;;;;;5018625;28;87411;-49
2021/09/13 10:33:15;;;;;;;;;;;17.90;50.80;;;;;;5018637;28;88690;-51
2021/09/13 10:35:51;;;;;;;;;;;18.00;50.90;;;;;;5020043;28;87149;-49
2021/09/13 10:38:43;;;;;;;;;;;18.00;50.90;;;;;;5021770;28;88052;-49
2021/09/13 10:41:09;;;;;;;;;;;18.00;50.90;;;;;;5018042;28;87105;-49
2021/09/13 10:43:34;;;;;;;;;;;18.00;51.00;;;;;;5019986;28;88984;-50
2021/09/13 10:46:00;;;;;;;;;;;18.00;51.00;;;;;;5019580;28;89393;-50
2021/09/13 10:48:25;;;;;;;;;;;18.00;50.90;;;;;;5021441;28;87239;-51
2021/09/13 10:50:55;;;;;;;;;;;18.10;50.90;;;;;;5018903;28;87884;-50
2021/09/13 10:53:20;;;;;;;;;;;18.10;51.10;;;;;;5018154;28;88144;-51
2021/09/13 10:55:52;;;;;;;;;;;18.10;51.20;;;;;;5020125;28;86395;-50
2021/09/13 10:58:19;;;;;;;;;;;18.10;51.20;;;;;;5019332;28;87763;-50
2021/09/13 11:00:44;;;;;;;;;;;18.10;51.20;;;;;;5020456;28;89562;-50
2021/09/13 11:03:22;;;;;;;;;;;18.10;51.00;;;;;;5018518;28;88065;-48
2021/09/13 11:06:03;;;;;;;;;;;18.20;51.20;;;;;;5017048;28;89880;-50
2021/09/13 11:08:29;;;;;;;;;;;18.20;51.20;;;;;;5018007;28;87152;-50
2021/09/13 11:10:55;;;;;;;;;;;18.20;51.10;;;;;;5018196;28;87179;-49
2021/09/13 11:13:20;;;;;;;;;;;18.20;51.30;;;;;;5019291;28;88086;-50
2021/09/13 11:15:52;;;;;;;;;;;18.30;51.30;;;;;;5019742;28;87146;-49
2021/09/13 11:18:33;;;;;;;;;;;18.30;51.30;;;;;;5019705;28;87646;-49
2021/09/13 11:21:18;;;;;;;;;;;18.30;51.20;;;;;;5022420;28;88699;-50
2021/09/13 11:23:43;;;;;;;;;;;18.30;51.20;;;;;;5016896;28;87407;-49
2021/09/13 11:26:09;;;;;;;;;;;18.40;51.10;;;;;;5016329;28;87743;-49
2021/09/13 11:28:53;;;;;;;;;;;18.40;51.10;;;;;;5016850;28;88084;-49
2021/09/13 11:31:29;;;;;;;;;;;18.40;51.10;;;;;;5019009;28;88318;-49
2021/09/13 11:33:55;;;;;;;;;;;18.40;51.10;;;;;;5015818;28;89354;-49
2021/09/13 11:36:22;;;;;;;;;;;18.40;51.10;;;;;;5016243;28;87136;-52
2021/09/13 11:38:57;;;;;;;;;;;18.50;51.30;;;;;;5019098;28;88161;-50
2021/09/13 11:41:23;;;;;;;;;;;18.40;51.10;;;;;;5017303;28;88749;-50
2021/09/13 11:43:55;;;;;;;;;;;18.50;51.20;;;;;;5019249;28;87116;-49
2021/09/13 11:46:21;;;;;;;;;;;18.50;51.10;;;;;;5016659;28;88955;-49
2021/09/13 11:48:46;;;;;;;;;;;18.50;51.10;;;;;;5016715;28;87145;-50
2021/09/13 11:51:12;;;;;;;;;;;18.60;51.20;;;;;;5017933;28;88009;-51
2021/09/13 11:53:37;;;;;;;;;;;18.60;51.30;;;;;;5018171;28;89285;-50
2021/09/13 11:56:03;;;;;;;;;;;18.60;51.30;;;;;;5020250;28;87152;-49
2021/09/13 11:58:28;;;;;;;;;;;18.60;51.20;;;;;;5020423;28;87162;-51
2021/09/13 12:00:54;;;;;;;;;;;18.60;51.20;;;;;;5017884;28;88254;-49
2021/09/13 12:03:27;;;;;;;;;;;18.60;51.20;;;;;;5016022;28;87874;-49
2021/09/13 12:05:53;;;;;;;;;;;18.70;51.10;;;;;;5022600;28;88023;-51
2021/09/13 12:08:22;;;;;;;;;;;18.70;51.20;;;;;;5018481;28;88256;-49
2021/09/13 12:10:49;;;;;;;;;;;18.70;51.20;;;;;;5018495;28;86781;-49
2021/09/13 12:13:16;;;;;;;;;;;18.70;51.40;;;;;;5016507;28;87579;-49
2021/09/13 12:15:48;;;;;;;;;;;18.80;51.30;;;;;;5016566;28;87100;-49
2021/09/13 12:18:16;;;;;;;;;;;18.80;51.30;;;;;;5015543;28;89450;-49
2021/09/13 12:20:42;;;;;;;;;;;18.80;51.30;;;;;;5019271;28;89681;-50
2021/09/13 12:23:09;;;;;;;;;;;18.80;51.30;;;;;;5020178;28;88731;-49
2021/09/13 12:25:39;;;;;;;;;;;18.80;51.30;;;;;;5023554;28;87589;-50
2021/09/13 12:28:05;;;;;;;;;;;18.90;52.00;;;;;;5022407;28;88530;-50
2021/09/13 12:30:34;;;;;;;;;;;18.90;51.40;;;;;;5019187;28;87645;-50
2021/09/13 12:33:08;;;;;;;;;;;18.90;51.40;;;;;;5021304;28;87635;-49
2021/09/13 12:35:36;;;;;;;;;;;19.00;51.40;;;;;;5020127;28;86461;-49
2021/09/13 12:38:03;;;;;;;;;;;19.00;51.30;;;;;;5022906;28;87993;-50
2021/09/13 12:40:29;;;;;;;;;;;19.00;51.40;;;;;;5022059;28;89256;-49
2021/09/13 12:42:54;;;;;;;;;;;19.00;51.30;;;;;;5022441;28;88886;-49
2021/09/13 12:45:21;;;;;;;;;;;19.00;51.30;;;;;;5019676;28;89539;-50
2021/09/13 12:47:50;;;;;;;;;;;19.10;51.30;;;;;;5020273;28;91024;-50
2021/09/13 12:50:29;;;;;;;;;;;19.10;51.30;;;;;;5024316;28;87182;-50
2021/09/13 12:52:56;;;;;;;;;;;19.10;51.30;;;;;;5019886;28;88996;-50
2021/09/13 12:55:22;;;;;;;;;;;19.10;51.20;;;;;;5021427;28;88669;-49
2021/09/13 12:57:48;;;;;;;;;;;19.20;51.10;;;;;;5020559;28;89326;-50
2021/09/13 13:00:14;;;;;;;;;;;19.20;51.30;;;;;;5018522;28;89807;-50
2021/09/13 13:02:41;;;;;;;;;;;19.20;51.20;;;;;;5019999;28;88872;-49
2021/09/13 13:05:25;;;;;;;;;;;19.20;51.30;;;;;;5022273;28;87656;-50
2021/09/13 13:07:50;;;;;;;;;;;19.30;51.20;;;;;;5022135;28;90229;-51
2021/09/13 13:10:16;;;;;;;;;;;19.20;51.10;;;;;;5022564;28;87176;-51
2021/09/13 13:12:41;;;;;;;;;;;19.30;51.10;;;;;;5024531;28;88057;-49
2021/09/13 13:15:07;;;;;;;;;;;19.30;51.10;;;;;;5021178;28;87111;-49
2021/09/13 13:17:33;;;;;;;;;;;19.30;51.10;;;;;;5020716;28;87597;-50
2021/09/13 13:19:58;;;;;;;;;;;19.30;51.10;;;;;;5021478;28;89110;-50
2021/09/13 13:22:24;;;;;;;;;;;19.40;50.90;;;;;;5022319;28;88727;-50
2021/09/13 13:24:49;;;;;;;;;;;19.40;51.00;;;;;;5022642;28;88805;-49
2021/09/13 13:27:15;;;;;;;;;;;19.40;51.10;;;;;;5019095;28;88076;-49
2021/09/13 13:29:40;;;;;;;;;;;19.40;51.00;;;;;;5018758;28;87111;-50
2021/09/13 13:32:06;;;;;;;;;;;19.40;51.20;;;;;;5021591;28;88075;-49
2021/09/13 13:34:33;;;;;;;;;;;19.40;51.10;;;;;;5018966;28;87090;-51
2021/09/13 13:36:58;;;;;;;;;;;19.50;51.00;;;;;;5019051;28;88897;-49
2021/09/13 13:39:24;;;;;;;;;;;19.50;51.00;;;;;;5019982;28;87526;-51
2021/09/13 13:41:49;;;;;;;;;;;19.50;50.80;;;;;;5021496;28;87124;-50
2021/09/13 13:44:15;;;;;;;;;;;19.50;50.90;;;;;;5022400;28;88620;-50
2021/09/13 13:46:40;;;;;;;;;;;19.50;50.70;;;;;;5018464;28;89478;-49
2021/09/13 13:49:06;;;;;;;;;;;19.60;50.90;;;;;;5018859;28;86391;-50
2021/09/13 13:51:32;;;;;;;;;;;19.60;50.90;;;;;;5019453;28;87205;-51
2021/09/13 13:53:57;;;;;;;;;;;19.60;50.80;;;;;;5021670;28;89367;-50
2021/09/13 13:56:23;;;;;;;;;;;19.60;50.60;;;;;;5019796;28;88061;-49
2021/09/13 13:58:49;;;;;;;;;;;19.60;51.30;;;;;;5021304;28;87361;-50
2021/09/13 14:01:14;;;;;;;;;;;19.60;50.50;;;;;;5020926;28;87129;-52
2021/09/13 14:03:40;;;;;;;;;;;19.70;50.60;;;;;;5021721;28;87741;-50
2021/09/13 14:06:05;;;;;;;;;;;19.70;50.70;;;;;;5020182;28;88579;-50
2021/09/13 14:08:31;;;;;;;;;;;19.80;50.60;;;;;;5019424;28;87945;-49
2021/09/13 14:10:58;;;;;;;;;;;19.80;50.70;;;;;;5022267;28;87259;-50
2021/09/13 14:13:23;;;;;;;;;;;19.80;50.70;;;;;;5019764;28;88586;-49
2021/09/13 14:15:49;;;;;;;;;;;19.80;50.70;;;;;;5023427;28;87197;-49
2021/09/13 14:18:14;;;;;;;;;;;19.90;50.80;;;;;;5021388;28;87306;-50
2021/09/13 14:20:41;;;;;;;;;;;19.90;50.70;;;;;;5021157;28;88147;-52